AFL1029 ULLI-UMKK
Flight info
| Callsign | AFL1029 |
|---|---|
| Flight time | N/A |
| Altitude | 38000 |
| Route | UTETA1B UTETA DCT PISIS DCT ARANS/N0455F380 DCT PIDIN DCT PISIM DCT PIRUX DCT PIVAX/N0457F370 DCT GARSO DCT AGONA DCT TURIP TURIP3F |
| Aircraft | A320/M-RA73764/LB1 |
Departure
| Time | 2026-05-08 07:00 |
|---|---|
| Airport | Pulkovo Airport (ULLI) |
Arrival
| Time | N/A |
|---|---|
| Airport | Khrabrovo Airport (UMKK) |
| Time | Latitude | Longitude | Altitude | Speed | Heading |
|---|---|---|---|---|---|
| 2026-05-08 06:30 | 59.79821 | 30.26662 | 85 ft | 0 kts | 106° |
| 2026-05-08 06:50 | 59.79824 | 30.26639 | 85 ft | 4 kts | 109° |
| 2026-05-08 06:51 | 59.79835 | 30.26590 | 85 ft | 4 kts | 124° |
| 2026-05-08 06:51 | 59.79852 | 30.26557 | 85 ft | 4 kts | 171° |
| 2026-05-08 06:51 | 59.79862 | 30.26556 | 85 ft | 0 kts | 195° |
| 2026-05-08 06:53 | 59.79861 | 30.26556 | 80 ft | 1 kts | 195° |
| 2026-05-08 06:53 | 59.79794 | 30.26517 | 83 ft | 13 kts | 196° |
| 2026-05-08 06:54 | 59.79712 | 30.26468 | 86 ft | 11 kts | 197° |
| 2026-05-08 06:54 | 59.79643 | 30.26428 | 88 ft | 9 kts | 197° |
| 2026-05-08 06:54 | 59.79586 | 30.26394 | 84 ft | 8 kts | 197° |
| 2026-05-08 06:54 | 59.79538 | 30.26366 | 87 ft | 6 kts | 196° |
| 2026-05-08 06:55 | 59.79503 | 30.26377 | 86 ft | 8 kts | 132° |
| 2026-05-08 06:55 | 59.79471 | 30.26553 | 84 ft | 15 kts | 106° |
| 2026-05-08 06:55 | 59.79443 | 30.26739 | 85 ft | 13 kts | 107° |
| 2026-05-08 06:55 | 59.79418 | 30.26906 | 85 ft | 12 kts | 106° |
| 2026-05-08 06:56 | 59.79396 | 30.27058 | 88 ft | 11 kts | 107° |
| 2026-05-08 06:56 | 59.79375 | 30.27196 | 85 ft | 10 kts | 106° |
| 2026-05-08 06:56 | 59.79353 | 30.27342 | 84 ft | 15 kts | 106° |
| 2026-05-08 06:56 | 59.79326 | 30.27531 | 86 ft | 14 kts | 106° |
| 2026-05-08 06:57 | 59.79299 | 30.27707 | 83 ft | 13 kts | 107° |
| 2026-05-08 06:57 | 59.79274 | 30.27870 | 85 ft | 12 kts | 107° |
| 2026-05-08 06:57 | 59.79252 | 30.28021 | 88 ft | 11 kts | 106° |
| 2026-05-08 06:57 | 59.79228 | 30.28159 | 85 ft | 10 kts | 118° |
| 2026-05-08 06:58 | 59.79176 | 30.28227 | 85 ft | 9 kts | 166° |
| 2026-05-08 06:58 | 59.79119 | 30.28252 | 87 ft | 8 kts | 168° |
| 2026-05-08 06:58 | 59.79070 | 30.28248 | 86 ft | 6 kts | 209° |
| 2026-05-08 06:58 | 59.79052 | 30.28186 | 89 ft | 5 kts | 263° |
| 2026-05-08 06:59 | 59.79056 | 30.28141 | 87 ft | 0 kts | 285° |
| 2026-05-08 06:59 | 59.79059 | 30.28123 | 83 ft | 8 kts | 285° |
| 2026-05-08 06:59 | 59.79142 | 30.27562 | 87 ft | 88 kts | 287° |
| 2026-05-08 06:59 | 59.79396 | 30.25887 | 90 ft | 163 kts | 287° |
| 2026-05-08 07:00 | 59.79735 | 30.23625 | 823 ft | 172 kts | 287° |
| 2026-05-08 07:00 | 59.80050 | 30.21326 | 1872 ft | 171 kts | 289° |
| 2026-05-08 07:00 | 59.80377 | 30.18972 | 2459 ft | 186 kts | 290° |
| 2026-05-08 07:00 | 59.80761 | 30.16371 | 2837 ft | 208 kts | 290° |
| 2026-05-08 07:01 | 59.81223 | 30.13422 | 3179 ft | 239 kts | 290° |
| 2026-05-08 07:01 | 59.81734 | 30.10214 | 4071 ft | 247 kts | 289° |
| 2026-05-08 07:01 | 59.82239 | 30.06934 | 5140 ft | 249 kts | 289° |
| 2026-05-08 07:01 | 59.82725 | 30.03621 | 6177 ft | 251 kts | 288° |
| 2026-05-08 07:02 | 59.83208 | 30.00246 | 7193 ft | 255 kts | 288° |
| 2026-05-08 07:02 | 59.83473 | 29.96732 | 8169 ft | 261 kts | 273° |
| 2026-05-08 07:02 | 59.83241 | 29.93112 | 9176 ft | 267 kts | 262° |
| 2026-05-08 07:02 | 59.82852 | 29.89472 | 10159 ft | 270 kts | 262° |
| 2026-05-08 07:03 | 59.82463 | 29.85727 | 10738 ft | 287 kts | 263° |
| 2026-05-08 07:03 | 59.82052 | 29.81682 | 11063 ft | 311 kts | 263° |
| 2026-05-08 07:03 | 59.81606 | 29.77321 | 11347 ft | 332 kts | 263° |
| 2026-05-08 07:03 | 59.81134 | 29.72764 | 11997 ft | 340 kts | 263° |
| 2026-05-08 07:04 | 59.80647 | 29.68149 | 12825 ft | 343 kts | 263° |
| 2026-05-08 07:04 | 59.80155 | 29.63506 | 13696 ft | 344 kts | 263° |
| 2026-05-08 07:04 | 59.79659 | 29.58842 | 14493 ft | 345 kts | 263° |
| 2026-05-08 07:04 | 59.79163 | 29.54170 | 15242 ft | 347 kts | 263° |
| 2026-05-08 07:05 | 59.78670 | 29.49546 | 15940 ft | 348 kts | 262° |
| 2026-05-08 07:05 | 59.78165 | 29.44834 | 16637 ft | 350 kts | 263° |
| 2026-05-08 07:05 | 59.77656 | 29.40096 | 17330 ft | 352 kts | 263° |
| 2026-05-08 07:05 | 59.77143 | 29.35332 | 18013 ft | 354 kts | 263° |
| 2026-05-08 07:06 | 59.76625 | 29.30534 | 18695 ft | 356 kts | 262° |
| 2026-05-08 07:06 | 59.76105 | 29.25718 | 19265 ft | 358 kts | 262° |
| 2026-05-08 07:06 | 59.75580 | 29.20879 | 19807 ft | 360 kts | 262° |
| 2026-05-08 07:06 | 59.75046 | 29.16011 | 20377 ft | 363 kts | 262° |
| 2026-05-08 07:07 | 59.74505 | 29.11105 | 20904 ft | 365 kts | 262° |
| 2026-05-08 07:07 | 59.74018 | 29.06158 | 21430 ft | 365 kts | 266° |
| 2026-05-08 07:07 | 59.73956 | 29.01135 | 21946 ft | 365 kts | 276° |
| 2026-05-08 07:07 | 59.74389 | 28.96179 | 22477 ft | 367 kts | 285° |
| 2026-05-08 07:08 | 59.75167 | 28.91347 | 22957 ft | 369 kts | 287° |
| 2026-05-08 07:08 | 59.75966 | 28.86483 | 23437 ft | 372 kts | 287° |
| 2026-05-08 07:08 | 59.76768 | 28.81584 | 23885 ft | 375 kts | 287° |
| 2026-05-08 07:08 | 59.77563 | 28.76710 | 24277 ft | 377 kts | 287° |
| 2026-05-08 07:09 | 59.78379 | 28.71676 | 24701 ft | 379 kts | 287° |
| 2026-05-08 07:09 | 59.79186 | 28.66675 | 25092 ft | 381 kts | 287° |
| 2026-05-08 07:09 | 59.79994 | 28.61650 | 25485 ft | 383 kts | 287° |
| 2026-05-08 07:09 | 59.80804 | 28.56586 | 25865 ft | 385 kts | 287° |
| 2026-05-08 07:10 | 59.81605 | 28.51565 | 26230 ft | 387 kts | 287° |
| 2026-05-08 07:10 | 59.82419 | 28.46446 | 26595 ft | 389 kts | 287° |
| 2026-05-08 07:10 | 59.83236 | 28.41297 | 26950 ft | 391 kts | 287° |
| 2026-05-08 07:10 | 59.84055 | 28.36129 | 27287 ft | 393 kts | 287° |
| 2026-05-08 07:11 | 59.84877 | 28.30934 | 27629 ft | 395 kts | 287° |
| 2026-05-08 07:11 | 59.85702 | 28.25705 | 27960 ft | 397 kts | 287° |
| 2026-05-08 07:11 | 59.86528 | 28.20455 | 28290 ft | 399 kts | 287° |
| 2026-05-08 07:11 | 59.87356 | 28.15175 | 28605 ft | 401 kts | 287° |
| 2026-05-08 07:12 | 59.88185 | 28.09872 | 28999 ft | 401 kts | 287° |
| 2026-05-08 07:12 | 59.89009 | 28.04585 | 29480 ft | 399 kts | 288° |
| 2026-05-08 07:12 | 59.89827 | 27.99312 | 29962 ft | 397 kts | 288° |
| 2026-05-08 07:12 | 59.90637 | 27.94055 | 30423 ft | 396 kts | 288° |
| 2026-05-08 07:13 | 59.91439 | 27.88823 | 30806 ft | 395 kts | 287° |
| 2026-05-08 07:13 | 59.92238 | 27.83598 | 31176 ft | 394 kts | 287° |
| 2026-05-08 07:13 | 59.93037 | 27.78379 | 31531 ft | 393 kts | 287° |
| 2026-05-08 07:13 | 59.93835 | 27.73163 | 31908 ft | 392 kts | 287° |
| 2026-05-08 07:14 | 59.94632 | 27.67968 | 32274 ft | 392 kts | 287° |
| 2026-05-08 07:14 | 59.95426 | 27.62773 | 32646 ft | 391 kts | 287° |
| 2026-05-08 07:14 | 59.96215 | 27.57581 | 32999 ft | 390 kts | 287° |
| 2026-05-08 07:14 | 59.96996 | 27.52394 | 33377 ft | 390 kts | 286° |
| 2026-05-08 07:15 | 59.97761 | 27.47282 | 33740 ft | 389 kts | 286° |
| 2026-05-08 07:15 | 59.98532 | 27.42117 | 34121 ft | 388 kts | 287° |
| 2026-05-08 07:15 | 59.99301 | 27.36958 | 34472 ft | 387 kts | 287° |
| 2026-05-08 07:15 | 60.00069 | 27.31790 | 34756 ft | 388 kts | 286° |
| 2026-05-08 07:16 | 60.00839 | 27.26613 | 35015 ft | 389 kts | 286° |
| 2026-05-08 07:16 | 60.01610 | 27.21432 | 35265 ft | 390 kts | 286° |
| 2026-05-08 07:16 | 60.02380 | 27.16235 | 35505 ft | 391 kts | 286° |
| 2026-05-08 07:16 | 60.03149 | 27.11002 | 35742 ft | 392 kts | 286° |
| 2026-05-08 07:17 | 60.03914 | 27.05772 | 35923 ft | 393 kts | 285° |
| 2026-05-08 07:17 | 60.04470 | 27.00425 | 36129 ft | 394 kts | 276° |
| 2026-05-08 07:17 | 60.04513 | 26.94933 | 36284 ft | 397 kts | 266° |
| 2026-05-08 07:17 | 60.04054 | 26.89460 | 36324 ft | 401 kts | 260° |
| 2026-05-08 07:18 | 60.02854 | 26.78547 | 36317 ft | 402 kts | 260° |
| 2026-05-08 07:18 | 60.01656 | 26.67623 | 36317 ft | 402 kts | 260° |
| 2026-05-08 07:19 | 60.00447 | 26.56713 | 36323 ft | 402 kts | 260° |
| 2026-05-08 07:19 | 59.99227 | 26.45801 | 36320 ft | 402 kts | 260° |
| 2026-05-08 07:20 | 59.97997 | 26.34906 | 36322 ft | 402 kts | 260° |
| 2026-05-08 07:20 | 59.96766 | 26.24012 | 36328 ft | 402 kts | 260° |
| 2026-05-08 07:21 | 59.95532 | 26.13190 | 36339 ft | 403 kts | 260° |
| 2026-05-08 07:21 | 59.94271 | 26.02304 | 36278 ft | 403 kts | 259° |
| 2026-05-08 07:22 | 59.93000 | 25.91390 | 36331 ft | 405 kts | 259° |
| 2026-05-08 07:22 | 59.91715 | 25.80451 | 36332 ft | 405 kts | 259° |
| 2026-05-08 07:23 | 59.90430 | 25.69508 | 36332 ft | 406 kts | 259° |
| 2026-05-08 07:23 | 59.89129 | 25.58575 | 36333 ft | 406 kts | 259° |
| 2026-05-08 07:24 | 59.87817 | 25.47647 | 36334 ft | 406 kts | 259° |
| 2026-05-08 07:24 | 59.86491 | 25.36717 | 36334 ft | 406 kts | 259° |
| 2026-05-08 07:25 | 59.85165 | 25.25784 | 36336 ft | 406 kts | 259° |
| 2026-05-08 07:26 | 59.83146 | 25.09431 | 36345 ft | 406 kts | 259° |
| 2026-05-08 07:26 | 59.81802 | 24.98596 | 36300 ft | 407 kts | 259° |
| 2026-05-08 07:27 | 59.80428 | 24.87589 | 36311 ft | 409 kts | 259° |
| 2026-05-08 07:27 | 59.79055 | 24.76693 | 36313 ft | 410 kts | 258° |
| 2026-05-08 07:28 | 59.77663 | 24.65715 | 36319 ft | 410 kts | 258° |
| 2026-05-08 07:28 | 59.76257 | 24.54735 | 36327 ft | 411 kts | 258° |
| 2026-05-08 07:29 | 59.74832 | 24.43755 | 36329 ft | 411 kts | 258° |
| 2026-05-08 07:29 | 59.73252 | 24.32833 | 36337 ft | 413 kts | 256° |
| 2026-05-08 07:30 | 59.71557 | 24.21959 | 36341 ft | 413 kts | 256° |
| 2026-05-08 07:30 | 59.69855 | 24.11066 | 36336 ft | 414 kts | 256° |
| 2026-05-08 07:31 | 59.68171 | 24.00157 | 36308 ft | 415 kts | 256° |
| 2026-05-08 07:31 | 59.66499 | 23.89284 | 36325 ft | 416 kts | 256° |
| 2026-05-08 07:32 | 59.64807 | 23.78325 | 36329 ft | 416 kts | 255° |
| 2026-05-08 07:32 | 59.63097 | 23.67380 | 36327 ft | 417 kts | 255° |
| 2026-05-08 07:33 | 59.61371 | 23.56445 | 36349 ft | 417 kts | 255° |
| 2026-05-08 07:33 | 59.59637 | 23.45510 | 36351 ft | 417 kts | 255° |
| 2026-05-08 07:34 | 59.57890 | 23.34575 | 36345 ft | 418 kts | 255° |
| 2026-05-08 07:34 | 59.56126 | 23.23637 | 36358 ft | 418 kts | 255° |
| 2026-05-08 07:35 | 59.54094 | 23.12871 | 36349 ft | 421 kts | 248° |
| 2026-05-08 07:35 | 59.51598 | 23.02433 | 36358 ft | 421 kts | 248° |
| 2026-05-08 07:36 | 59.49507 | 22.93748 | 36356 ft | 422 kts | 247° |
| 2026-05-08 07:36 | 59.46570 | 22.81637 | 36365 ft | 422 kts | 247° |
| 2026-05-08 07:37 | 59.44449 | 22.72923 | 36364 ft | 422 kts | 247° |
| 2026-05-08 07:37 | 59.41911 | 22.62512 | 36366 ft | 422 kts | 247° |
| 2026-05-08 07:38 | 59.39378 | 22.52197 | 36386 ft | 422 kts | 247° |
| 2026-05-08 07:38 | 59.36821 | 22.41820 | 36352 ft | 423 kts | 246° |
| 2026-05-08 07:39 | 59.34249 | 22.31416 | 36353 ft | 424 kts | 246° |
| 2026-05-08 07:39 | 59.31662 | 22.21013 | 36356 ft | 425 kts | 246° |
| 2026-05-08 07:40 | 59.29062 | 22.10623 | 36363 ft | 426 kts | 246° |
| 2026-05-08 07:40 | 59.26447 | 22.00214 | 36366 ft | 426 kts | 246° |
| 2026-05-08 07:41 | 59.23823 | 21.89825 | 36365 ft | 426 kts | 246° |
| 2026-05-08 07:41 | 59.21193 | 21.79451 | 36373 ft | 426 kts | 246° |
| 2026-05-08 07:42 | 59.18550 | 21.69065 | 36354 ft | 428 kts | 245° |
| 2026-05-08 07:42 | 59.15911 | 21.58740 | 36364 ft | 429 kts | 245° |
| 2026-05-08 07:43 | 59.13233 | 21.48354 | 36364 ft | 430 kts | 245° |
| 2026-05-08 07:43 | 59.10538 | 21.37957 | 36367 ft | 430 kts | 245° |
| 2026-05-08 07:44 | 59.07827 | 21.27578 | 36368 ft | 431 kts | 243° |
| 2026-05-08 07:44 | 59.06170 | 21.22720 | 36369 ft | 433 kts | 232° |
| 2026-05-08 07:44 | 59.04068 | 21.18508 | 36367 ft | 436 kts | 222° |
| 2026-05-08 07:45 | 58.98784 | 21.12643 | 36348 ft | 443 kts | 201° |
| 2026-05-08 07:45 | 58.92922 | 21.08882 | 36348 ft | 444 kts | 200° |
| 2026-05-08 07:46 | 58.87045 | 21.05113 | 36353 ft | 445 kts | 200° |
| 2026-05-08 07:46 | 58.81164 | 21.01342 | 36362 ft | 446 kts | 200° |
| 2026-05-08 07:47 | 58.75273 | 20.97585 | 36368 ft | 446 kts | 200° |
| 2026-05-08 07:47 | 58.69417 | 20.93864 | 36367 ft | 446 kts | 200° |
| 2026-05-08 07:48 | 58.63523 | 20.90141 | 36370 ft | 446 kts | 200° |
| 2026-05-08 07:48 | 58.57623 | 20.86418 | 36372 ft | 446 kts | 200° |
| 2026-05-08 07:49 | 58.51725 | 20.82711 | 36373 ft | 446 kts | 200° |
| 2026-05-08 07:49 | 58.45828 | 20.79017 | 36360 ft | 446 kts | 199° |
| 2026-05-08 07:50 | 58.39929 | 20.75329 | 36363 ft | 446 kts | 199° |
| 2026-05-08 07:50 | 58.34023 | 20.71661 | 36363 ft | 447 kts | 199° |
| 2026-05-08 07:51 | 58.28112 | 20.67984 | 36364 ft | 447 kts | 199° |
| 2026-05-08 07:51 | 58.22196 | 20.64334 | 36365 ft | 447 kts | 199° |
| 2026-05-08 07:52 | 58.16279 | 20.60706 | 36358 ft | 447 kts | 198° |
| 2026-05-08 07:52 | 58.10396 | 20.57100 | 36355 ft | 448 kts | 198° |
| 2026-05-08 07:53 | 58.04474 | 20.53482 | 36357 ft | 447 kts | 198° |
| 2026-05-08 07:53 | 57.98540 | 20.49876 | 36355 ft | 448 kts | 198° |
| 2026-05-08 07:54 | 57.92612 | 20.46279 | 36355 ft | 447 kts | 198° |
| 2026-05-08 07:54 | 57.86683 | 20.42694 | 36351 ft | 448 kts | 197° |
| 2026-05-08 07:55 | 57.80751 | 20.39119 | 36351 ft | 447 kts | 197° |
| 2026-05-08 07:55 | 57.74825 | 20.35551 | 36351 ft | 447 kts | 197° |
| 2026-05-08 07:56 | 57.68933 | 20.32021 | 36349 ft | 447 kts | 197° |
| 2026-05-08 07:56 | 57.62999 | 20.28487 | 36352 ft | 448 kts | 196° |
| 2026-05-08 07:57 | 57.57060 | 20.24959 | 36339 ft | 448 kts | 197° |
| 2026-05-08 07:57 | 57.51109 | 20.21443 | 36332 ft | 448 kts | 197° |
| 2026-05-08 07:58 | 57.45171 | 20.17947 | 36347 ft | 447 kts | 197° |
| 2026-05-08 07:58 | 57.39244 | 20.14458 | 36355 ft | 445 kts | 197° |
| 2026-05-08 07:59 | 57.33384 | 20.11021 | 36351 ft | 444 kts | 197° |
| 2026-05-08 07:59 | 57.27500 | 20.07582 | 36351 ft | 443 kts | 197° |
| 2026-05-08 08:00 | 57.21628 | 20.04159 | 36347 ft | 442 kts | 197° |
| 2026-05-08 08:00 | 57.15761 | 20.00755 | 36338 ft | 441 kts | 197° |
| 2026-05-08 08:01 | 57.09908 | 19.97369 | 36333 ft | 441 kts | 197° |
| 2026-05-08 08:01 | 57.04052 | 19.93991 | 36324 ft | 441 kts | 197° |
| 2026-05-08 08:02 | 56.98025 | 19.92243 | 36317 ft | 440 kts | 179° |
| 2026-05-08 08:02 | 56.91938 | 19.93286 | 36310 ft | 440 kts | 174° |
| 2026-05-08 08:03 | 56.85843 | 19.94484 | 36298 ft | 440 kts | 174° |
| 2026-05-08 08:03 | 56.79791 | 19.95657 | 36307 ft | 440 kts | 174° |
| 2026-05-08 08:04 | 56.73702 | 19.96849 | 36304 ft | 439 kts | 174° |
| 2026-05-08 08:04 | 56.67625 | 19.98032 | 36306 ft | 439 kts | 174° |
| 2026-05-08 08:05 | 56.61543 | 19.99218 | 36299 ft | 439 kts | 174° |
| 2026-05-08 08:05 | 56.55473 | 20.00399 | 36303 ft | 439 kts | 174° |
| 2026-05-08 08:06 | 56.49399 | 20.01575 | 36298 ft | 439 kts | 174° |
| 2026-05-08 08:06 | 56.43327 | 20.02742 | 36279 ft | 439 kts | 175° |
| 2026-05-08 08:07 | 56.37255 | 20.03903 | 36279 ft | 439 kts | 175° |
| 2026-05-08 08:07 | 56.31178 | 20.05064 | 36280 ft | 439 kts | 174° |
| 2026-05-08 08:08 | 56.25112 | 20.06234 | 36283 ft | 438 kts | 175° |
| 2026-05-08 08:08 | 56.19056 | 20.07384 | 36280 ft | 438 kts | 175° |
| 2026-05-08 08:09 | 56.13058 | 20.09210 | 36075 ft | 439 kts | 163° |
| 2026-05-08 08:09 | 56.10178 | 20.11035 | 35832 ft | 438 kts | 161° |
| 2026-05-08 08:09 | 56.07315 | 20.12887 | 35584 ft | 438 kts | 161° |
| 2026-05-08 08:09 | 56.04486 | 20.14715 | 34930 ft | 440 kts | 161° |
| 2026-05-08 08:10 | 56.01586 | 20.16580 | 33977 ft | 444 kts | 161° |
| 2026-05-08 08:10 | 55.98698 | 20.18429 | 33266 ft | 439 kts | 162° |
| 2026-05-08 08:10 | 55.95830 | 20.20260 | 32450 ft | 436 kts | 162° |
| 2026-05-08 08:10 | 55.92985 | 20.22075 | 31671 ft | 431 kts | 163° |
| 2026-05-08 08:11 | 55.90181 | 20.23861 | 30945 ft | 425 kts | 163° |
| 2026-05-08 08:11 | 55.87409 | 20.25622 | 30134 ft | 420 kts | 164° |
| 2026-05-08 08:11 | 55.84664 | 20.27366 | 29019 ft | 419 kts | 163° |
| 2026-05-08 08:11 | 55.81892 | 20.29121 | 27581 ft | 426 kts | 162° |
| 2026-05-08 08:12 | 55.79071 | 20.30901 | 25909 ft | 432 kts | 161° |
| 2026-05-08 08:12 | 55.76221 | 20.32698 | 24031 ft | 437 kts | 160° |
| 2026-05-08 08:12 | 55.73331 | 20.34525 | 22082 ft | 447 kts | 160° |
| 2026-05-08 08:12 | 55.70397 | 20.36376 | 21205 ft | 443 kts | 160° |
| 2026-05-08 08:13 | 55.67533 | 20.38174 | 20566 ft | 433 kts | 160° |
| 2026-05-08 08:13 | 55.64696 | 20.39948 | 19668 ft | 431 kts | 160° |
| 2026-05-08 08:13 | 55.61879 | 20.41707 | 18810 ft | 428 kts | 160° |
| 2026-05-08 08:13 | 55.59076 | 20.43456 | 17912 ft | 426 kts | 160° |
| 2026-05-08 08:14 | 55.56305 | 20.45184 | 17117 ft | 420 kts | 160° |
| 2026-05-08 08:14 | 55.53566 | 20.46892 | 16284 ft | 415 kts | 160° |
| 2026-05-08 08:14 | 55.50858 | 20.48580 | 15536 ft | 410 kts | 160° |
| 2026-05-08 08:14 | 55.48184 | 20.50246 | 14812 ft | 406 kts | 160° |
| 2026-05-08 08:15 | 55.45529 | 20.51894 | 14106 ft | 402 kts | 159° |
| 2026-05-08 08:15 | 55.42903 | 20.53522 | 13365 ft | 398 kts | 159° |
| 2026-05-08 08:15 | 55.40277 | 20.54924 | 12694 ft | 393 kts | 166° |
| 2026-05-08 08:15 | 55.37596 | 20.55506 | 12327 ft | 382 kts | 176° |
| 2026-05-08 08:16 | 55.35009 | 20.55670 | 12197 ft | 364 kts | 175° |
| 2026-05-08 08:16 | 55.32540 | 20.55933 | 12069 ft | 345 kts | 169° |
| 2026-05-08 08:16 | 55.30271 | 20.56891 | 11943 ft | 327 kts | 158° |
| 2026-05-08 08:16 | 55.28242 | 20.58479 | 11811 ft | 312 kts | 151° |
| 2026-05-08 08:17 | 55.26335 | 20.60125 | 11677 ft | 296 kts | 151° |